Flight Track Log - Related Links

Times and Time Zones

All times are in EDT time to prevent confusion due to time zone crossing. See the EJA396 flight status page for this flight to view local times or setup timezone preferences in your user account.

Time Position Orientation Groundspeed Altitude Reporting Facility
EDT Latitude Longitude Course Direction KTS MPH feet Rate Location/Type
Thu 03:35:51 PM 40.5011 -80.3053 270° West 210 242 3,600  Level Cleveland Center
Thu 03:36:53 PM 40.5000 -80.4128 269° West 245 282 9,000 4,113 Climbing Cleveland Center
Thu 03:37:55 PM 40.4989 -80.5158 269° West 287 330 12,100 2,613 Climbing Cleveland Center
Thu 03:38:57 PM 40.4964 -80.6403 269° West 338 389 14,400 2,516 Climbing Cleveland Center
Thu 03:39:59 PM 40.4933 -80.7772 268° West 371 427 17,300 2,661 Climbing Cleveland Center
Thu 03:41:00 PM 40.3091 -80.9630 270° West  Level Estimated
Thu 03:41:01 PM 40.4900 -80.9142 268° West 377 434 19,900  Level Cleveland Center
Thu 03:42:03 PM 40.4878 -81.0794 269° West 378 435 23,300 2,710 Climbing Cleveland Center
Thu 03:43:05 PM 40.4831 -81.2208 268° West 386 444 25,500 1,984 Climbing Cleveland Center
Thu 03:44:07 PM 40.4808 -81.3667 269° West 399 459 27,400 1,210 Climbing Cleveland Center
Thu 03:45:09 PM 40.4761 -81.5211 268° West 422 486 28,000 720 Climbing Cleveland Center
Thu 03:46:12 PM 40.4711 -81.6894 268° West 449 517 28,900 960 Climbing Cleveland Center
Thu 03:47:14 PM 40.4650 -81.8864 268° West 457 526 30,000 532 Climbing Cleveland Center
Thu 03:48:16 PM 40.4586 -82.0586 267° West 464 534 30,000  Level Cleveland Center
Thu 03:49:21 PM 40.3981 -82.2167 243° Southwest 486 559 30,000  Level Indianapolis Center
Thu 03:50:23 PM 40.3100 -82.3544 230° Southwest 488 562 30,000  Level Indianapolis Center
Thu 03:51:25 PM 40.2489 -82.5125 243° Southwest 479 551 30,000  Level Indianapolis Center
Thu 03:52:28 PM 40.1811 -82.6978 244° Southwest 479 551 30,000  Level Indianapolis Center
Thu 03:53:30 PM 40.1219 -82.8567 244° Southwest 481 554 30,000  Level Indianapolis Center
Thu 03:54:32 PM 40.0622 -83.0142 244° Southwest 480 552 30,000  Level Indianapolis Center
Thu 03:55:34 PM 40.0033 -83.1736 244° Southwest 482 555 30,000 -532 Level Indianapolis Center
Thu 03:56:36 PM 39.9481 -83.3200 244° Southwest 479 551 28,900 -1,452 Descending Indianapolis Center
Thu 03:57:38 PM 39.8786 -83.5011 243° Southwest 468 539 27,000 -1,645 Descending Indianapolis Center
Thu 03:58:40 PM 39.8225 -83.6500 244° Southwest 462 532 25,500 -1,403 Descending Indianapolis Center
Thu 03:59:42 PM 39.7667 -83.7939 243° Southwest 450 518 24,100 -726 Descending Indianapolis Center
Thu 04:00:44 PM 39.7072 -83.9486 244° Southwest 444 511 24,000 -484 Descending Indianapolis Center
Thu 04:01:46 PM 39.6519 -84.0917 243° Southwest 445 512 23,100 -1,210 Descending Indianapolis Center
Thu 04:02:48 PM 39.5967 -84.2303 243° Southwest 435 501 21,500 -1,500 Descending Indianapolis Center
Thu 04:03:50 PM 39.5431 -84.3683 243° Southwest 430 495 20,000 -1,440 Descending Indianapolis Center
Thu 04:04:53 PM 39.4911 -84.5014 243° Southwest 418 481 18,500 -1,392 Descending Indianapolis Center
Thu 04:05:55 PM 39.4400 -84.6306 243° Southwest 406 467 17,100 -1,548 Descending Indianapolis Center
Thu 04:06:57 PM 39.3803 -84.7803 243° Southwest 393 452 15,300 -1,500 Descending Indianapolis Center
Thu 04:07:59 PM 39.3333 -84.9019 244° Southwest 385 443 14,000 -823 Descending Indianapolis Center
Thu 04:09:01 PM 39.2828 -85.0214 241° Southwest 379 436 13,600 -968 Descending Indianapolis Center
Thu 04:10:03 PM 39.2369 -85.1411 244° Southwest 374 430 12,000 -1,500 Descending Indianapolis Center
Thu 04:11:05 PM 39.1894 -85.2564 242° Southwest 367 422 10,500 -1,500 Descending Indianapolis Center
Thu 04:12:07 PM 39.1494 -85.3567 243° Southwest 326 375 8,900 -2,323 Descending Indianapolis Center
Thu 04:13:09 PM 39.1061 -85.4653 243° Southwest 291 335 5,700 -2,371 Descending Indianapolis Center
Thu 04:14:11 PM 39.0700 -85.5531 242° Southwest 286 329 4,000 -1,306 Descending Indianapolis Center
Thu 04:15:13 PM 39.0375 -85.6322 242° Southwest 273 314 3,000 -484 Descending Indianapolis Center
Thu 04:16:15 PM 39.0094 -85.7019 243° Southwest 251 289 3,000  Level Indianapolis Center

Login

Don't have an account? Register now (free) for customized features, flight alerts, and more!